sensor_id;sensor_type;location;lat;lon;timestamp;temperature;humidity
79489;SHT31;68949;53.176;18.088;2023-09-19T00:00:24;20.53;69.01
79489;SHT31;68949;53.176;18.088;2023-09-19T00:03:13;20.46;69.05
79489;SHT31;68949;53.176;18.088;2023-09-19T00:05:41;20.45;69.22
79489;SHT31;68949;53.176;18.088;2023-09-19T00:08:11;20.44;69.30
79489;SHT31;68949;53.176;18.088;2023-09-19T00:10:41;20.40;69.39
79489;SHT31;68949;53.176;18.088;2023-09-19T00:13:09;20.36;69.50
79489;SHT31;68949;53.176;18.088;2023-09-19T00:15:41;20.36;69.51
79489;SHT31;68949;53.176;18.088;2023-09-19T00:18:21;20.37;69.58
79489;SHT31;68949;53.176;18.088;2023-09-19T00:20:49;20.32;69.79
79489;SHT31;68949;53.176;18.088;2023-09-19T00:23:17;20.30;69.92
79489;SHT31;68949;53.176;18.088;2023-09-19T00:25:45;20.26;70.07
79489;SHT31;68949;53.176;18.088;2023-09-19T00:28:12;20.23;70.24
79489;SHT31;68949;53.176;18.088;2023-09-19T00:30:39;20.22;70.39
79489;SHT31;68949;53.176;18.088;2023-09-19T00:33:10;20.19;70.49
79489;SHT31;68949;53.176;18.088;2023-09-19T00:35:52;20.17;70.56
79489;SHT31;68949;53.176;18.088;2023-09-19T00:38:21;20.19;70.63
79489;SHT31;68949;53.176;18.088;2023-09-19T00:40:55;20.20;70.81
79489;SHT31;68949;53.176;18.088;2023-09-19T00:43:26;20.19;70.95
79489;SHT31;68949;53.176;18.088;2023-09-19T00:45:54;20.20;71.03
79489;SHT31;68949;53.176;18.088;2023-09-19T00:48:22;20.23;71.08
79489;SHT31;68949;53.176;18.088;2023-09-19T00:50:54;20.25;71.24
79489;SHT31;68949;53.176;18.088;2023-09-19T00:53:23;20.25;71.53
79489;SHT31;68949;53.176;18.088;2023-09-19T00:55:54;20.25;71.67
79489;SHT31;68949;53.176;18.088;2023-09-19T00:58:22;20.27;71.79
79489;SHT31;68949;53.176;18.088;2023-09-19T01:00:49;20.29;71.82
79489;SHT31;68949;53.176;18.088;2023-09-19T01:03:17;20.30;72.06
79489;SHT31;68949;53.176;18.088;2023-09-19T01:05:44;20.31;72.14
79489;SHT31;68949;53.176;18.088;2023-09-19T01:08:12;20.31;72.20
79489;SHT31;68949;53.176;18.088;2023-09-19T01:17:05;20.29;72.48
79489;SHT31;68949;53.176;18.088;2023-09-19T01:23:14;20.23;72.63
79489;SHT31;68949;53.176;18.088;2023-09-19T01:26:07;20.20;72.63
79489;SHT31;68949;53.176;18.088;2023-09-19T01:32:03;20.15;72.91
79489;SHT31;68949;53.176;18.088;2023-09-19T01:34:48;20.14;72.98
79489;SHT31;68949;53.176;18.088;2023-09-19T01:37:20;20.11;73.00
79489;SHT31;68949;53.176;18.088;2023-09-19T01:39:53;20.07;73.22
79489;SHT31;68949;53.176;18.088;2023-09-19T01:45:24;20.00;73.26
79489;SHT31;68949;53.176;18.088;2023-09-19T01:48:05;19.96;73.41
79489;SHT31;68949;53.176;18.088;2023-09-19T01:51:03;19.93;73.42
79489;SHT31;68949;53.176;18.088;2023-09-19T01:53:33;19.92;73.51
79489;SHT31;68949;53.176;18.088;2023-09-19T01:56:45;19.89;73.60
79489;SHT31;68949;53.176;18.088;2023-09-19T01:59:21;19.88;73.71
79489;SHT31;68949;53.176;18.088;2023-09-19T02:01:54;19.86;73.89
79489;SHT31;68949;53.176;18.088;2023-09-19T02:04:23;19.83;74.17
79489;SHT31;68949;53.176;18.088;2023-09-19T02:06:51;19.80;74.31
79489;SHT31;68949;53.176;18.088;2023-09-19T02:09:19;19.78;74.43
79489;SHT31;68949;53.176;18.088;2023-09-19T02:11:46;19.77;74.57
79489;SHT31;68949;53.176;18.088;2023-09-19T02:14:13;19.74;74.78
79489;SHT31;68949;53.176;18.088;2023-09-19T02:16:40;19.73;75.07
79489;SHT31;68949;53.176;18.088;2023-09-19T02:19:07;19.70;75.36
79489;SHT31;68949;53.176;18.088;2023-09-19T02:21:33;19.71;75.55
79489;SHT31;68949;53.176;18.088;2023-09-19T02:24:00;19.65;75.80
79489;SHT31;68949;53.176;18.088;2023-09-19T02:26:29;19.58;76.13
79489;SHT31;68949;53.176;18.088;2023-09-19T02:28:55;19.53;76.53
79489;SHT31;68949;53.176;18.088;2023-09-19T02:31:22;19.51;76.74
79489;SHT31;68949;53.176;18.088;2023-09-19T02:33:49;19.48;76.86
79489;SHT31;68949;53.176;18.088;2023-09-19T02:36:15;19.46;76.96
79489;SHT31;68949;53.176;18.088;2023-09-19T02:38:43;19.47;76.87
79489;SHT31;68949;53.176;18.088;2023-09-19T02:41:10;19.48;76.99
79489;SHT31;68949;53.176;18.088;2023-09-19T02:43:38;19.50;77.26
79489;SHT31;68949;53.176;18.088;2023-09-19T02:46:05;19.52;77.27
79489;SHT31;68949;53.176;18.088;2023-09-19T02:48:31;19.55;77.29
79489;SHT31;68949;53.176;18.088;2023-09-19T02:50:59;19.59;77.35
79489;SHT31;68949;53.176;18.088;2023-09-19T02:53:26;19.59;77.68
79489;SHT31;68949;53.176;18.088;2023-09-19T02:55:53;19.53;78.04
79489;SHT31;68949;53.176;18.088;2023-09-19T02:58:20;19.49;78.28
79489;SHT31;68949;53.176;18.088;2023-09-19T03:00:47;19.43;78.56
79489;SHT31;68949;53.176;18.088;2023-09-19T03:03:16;19.25;79.06
79489;SHT31;68949;53.176;18.088;2023-09-19T03:05:43;19.13;79.59
79489;SHT31;68949;53.176;18.088;2023-09-19T03:08:13;19.08;80.02
79489;SHT31;68949;53.176;18.088;2023-09-19T03:10:46;19.01;80.49
79489;SHT31;68949;53.176;18.088;2023-09-19T03:13:14;18.94;80.85
79489;SHT31;68949;53.176;18.088;2023-09-19T03:15:41;18.90;81.03
79489;SHT31;68949;53.176;18.088;2023-09-19T03:18:19;18.88;81.21
79489;SHT31;68949;53.176;18.088;2023-09-19T03:20:52;18.85;81.46
79489;SHT31;68949;53.176;18.088;2023-09-19T03:23:22;18.87;81.60
79489;SHT31;68949;53.176;18.088;2023-09-19T03:25:50;18.88;81.72
79489;SHT31;68949;53.176;18.088;2023-09-19T03:28:19;18.86;81.85
79489;SHT31;68949;53.176;18.088;2023-09-19T03:31:00;18.85;81.96
79489;SHT31;68949;53.176;18.088;2023-09-19T03:33:29;18.90;81.99
79489;SHT31;68949;53.176;18.088;2023-09-19T03:35:59;18.92;82.09
79489;SHT31;68949;53.176;18.088;2023-09-19T03:38:31;18.87;82.26
79489;SHT31;68949;53.176;18.088;2023-09-19T03:41:00;18.84;82.43
79489;SHT31;68949;53.176;18.088;2023-09-19T03:43:28;18.82;82.56
79489;SHT31;68949;53.176;18.088;2023-09-19T03:45:55;18.82;82.67
79489;SHT31;68949;53.176;18.088;2023-09-19T03:48:22;18.80;82.78
79489;SHT31;68949;53.176;18.088;2023-09-19T03:50:50;18.77;82.89
79489;SHT31;68949;53.176;18.088;2023-09-19T03:53:17;18.74;82.98
79489;SHT31;68949;53.176;18.088;2023-09-19T03:55:44;18.74;82.90
79489;SHT31;68949;53.176;18.088;2023-09-19T03:58:12;18.72;82.94
79489;SHT31;68949;53.176;18.088;2023-09-19T04:00:39;18.68;83.12
79489;SHT31;68949;53.176;18.088;2023-09-19T04:03:07;18.64;83.24
79489;SHT31;68949;53.176;18.088;2023-09-19T04:05:34;18.59;83.44
79489;SHT31;68949;53.176;18.088;2023-09-19T04:08:01;18.57;83.54
79489;SHT31;68949;53.176;18.088;2023-09-19T04:10:45;18.57;83.67
79489;SHT31;68949;53.176;18.088;2023-09-19T04:13:12;18.59;83.78
79489;SHT31;68949;53.176;18.088;2023-09-19T04:15:38;18.65;83.76
79489;SHT31;68949;53.176;18.088;2023-09-19T04:18:06;18.66;83.72
79489;SHT31;68949;53.176;18.088;2023-09-19T04:20:33;18.68;83.73
79489;SHT31;68949;53.176;18.088;2023-09-19T04:23:00;18.74;83.64
79489;SHT31;68949;53.176;18.088;2023-09-19T04:25:27;18.81;83.47
79489;SHT31;68949;53.176;18.088;2023-09-19T04:27:55;18.87;83.43
79489;SHT31;68949;53.176;18.088;2023-09-19T04:30:22;18.86;83.46
79489;SHT31;68949;53.176;18.088;2023-09-19T04:32:49;18.88;83.48
79489;SHT31;68949;53.176;18.088;2023-09-19T04:35:17;18.90;83.46
79489;SHT31;68949;53.176;18.088;2023-09-19T04:37:44;18.92;83.37
79489;SHT31;68949;53.176;18.088;2023-09-19T04:40:10;18.87;83.44
79489;SHT31;68949;53.176;18.088;2023-09-19T04:42:43;18.81;83.60
79489;SHT31;68949;53.176;18.088;2023-09-19T04:45:10;18.77;83.68
79489;SHT31;68949;53.176;18.088;2023-09-19T04:47:37;18.70;83.77
79489;SHT31;68949;53.176;18.088;2023-09-19T04:50:06;18.65;83.96
79489;SHT31;68949;53.176;18.088;2023-09-19T04:52:40;18.65;83.95
79489;SHT31;68949;53.176;18.088;2023-09-19T04:55:09;18.66;83.91
79489;SHT31;68949;53.176;18.088;2023-09-19T04:57:44;18.69;83.93
79489;SHT31;68949;53.176;18.088;2023-09-19T05:00:12;18.72;84.01
79489;SHT31;68949;53.176;18.088;2023-09-19T05:02:41;18.72;84.07
79489;SHT31;68949;53.176;18.088;2023-09-19T05:05:09;18.76;84.13
79489;SHT31;68949;53.176;18.088;2023-09-19T05:07:41;18.82;84.02
79489;SHT31;68949;53.176;18.088;2023-09-19T05:10:09;18.85;83.94
79489;SHT31;68949;53.176;18.088;2023-09-19T05:12:38;18.79;83.99
79489;SHT31;68949;53.176;18.088;2023-09-19T05:15:05;18.72;84.12
79489;SHT31;68949;53.176;18.088;2023-09-19T05:17:34;18.68;84.31
79489;SHT31;68949;53.176;18.088;2023-09-19T05:20:02;18.67;84.31
79489;SHT31;68949;53.176;18.088;2023-09-19T05:22:41;18.64;84.35
79489;SHT31;68949;53.176;18.088;2023-09-19T05:25:09;18.58;84.41
79489;SHT31;68949;53.176;18.088;2023-09-19T05:27:37;18.48;84.64
79489;SHT31;68949;53.176;18.088;2023-09-19T05:30:04;18.48;84.79
79489;SHT31;68949;53.176;18.088;2023-09-19T05:32:31;18.50;84.73
79489;SHT31;68949;53.176;18.088;2023-09-19T05:34:58;18.49;84.74
79489;SHT31;68949;53.176;18.088;2023-09-19T05:37:25;18.45;84.83
79489;SHT31;68949;53.176;18.088;2023-09-19T05:39:52;18.44;84.96
79489;SHT31;68949;53.176;18.088;2023-09-19T05:42:22;18.44;84.95
79489;SHT31;68949;53.176;18.088;2023-09-19T05:44:48;18.44;84.92
79489;SHT31;68949;53.176;18.088;2023-09-19T05:47:15;18.43;84.99
79489;SHT31;68949;53.176;18.088;2023-09-19T05:49:42;18.49;84.96
79489;SHT31;68949;53.176;18.088;2023-09-19T05:52:08;18.48;84.88
79489;SHT31;68949;53.176;18.088;2023-09-19T05:54:35;18.47;84.90
79489;SHT31;68949;53.176;18.088;2023-09-19T05:57:01;18.50;84.81
79489;SHT31;68949;53.176;18.088;2023-09-19T05:59:28;18.52;84.75
79489;SHT31;68949;53.176;18.088;2023-09-19T06:01:55;18.54;84.59
79489;SHT31;68949;53.176;18.088;2023-09-19T06:04:22;18.57;84.48
79489;SHT31;68949;53.176;18.088;2023-09-19T06:06:49;18.57;84.33
79489;SHT31;68949;53.176;18.088;2023-09-19T06:09:16;18.54;84.26
79489;SHT31;68949;53.176;18.088;2023-09-19T06:11:43;18.49;84.23
79489;SHT31;68949;53.176;18.088;2023-09-19T06:14:10;18.46;84.26
79489;SHT31;68949;53.176;18.088;2023-09-19T06:16:38;18.42;84.23
79489;SHT31;68949;53.176;18.088;2023-09-19T06:19:05;18.40;84.18
79489;SHT31;68949;53.176;18.088;2023-09-19T06:21:35;18.35;84.15
79489;SHT31;68949;53.176;18.088;2023-09-19T06:24:03;18.34;84.20
79489;SHT31;68949;53.176;18.088;2023-09-19T06:26:31;18.36;84.19
79489;SHT31;68949;53.176;18.088;2023-09-19T06:28:58;18.40;84.09
79489;SHT31;68949;53.176;18.088;2023-09-19T06:31:26;18.40;83.97
79489;SHT31;68949;53.176;18.088;2023-09-19T06:33:52;18.39;83.90
79489;SHT31;68949;53.176;18.088;2023-09-19T06:36:19;18.38;83.91
79489;SHT31;68949;53.176;18.088;2023-09-19T06:38:46;18.35;84.02
79489;SHT31;68949;53.176;18.088;2023-09-19T06:41:13;18.33;84.08
79489;SHT31;68949;53.176;18.088;2023-09-19T06:43:41;18.33;84.18
79489;SHT31;68949;53.176;18.088;2023-09-19T06:46:07;18.37;84.20
79489;SHT31;68949;53.176;18.088;2023-09-19T06:48:36;18.43;84.10
79489;SHT31;68949;53.176;18.088;2023-09-19T06:51:02;18.45;83.95
79489;SHT31;68949;53.176;18.088;2023-09-19T06:53:34;18.45;84.09
79489;SHT31;68949;53.176;18.088;2023-09-19T06:56:02;18.45;84.16
79489;SHT31;68949;53.176;18.088;2023-09-19T06:58:29;18.52;84.16
79489;SHT31;68949;53.176;18.088;2023-09-19T07:00:57;18.57;84.07
79489;SHT31;68949;53.176;18.088;2023-09-19T07:03:24;18.59;84.04
79489;SHT31;68949;53.176;18.088;2023-09-19T07:05:53;18.64;84.02
79489;SHT31;68949;53.176;18.088;2023-09-19T07:08:22;18.65;83.94
79489;SHT31;68949;53.176;18.088;2023-09-19T07:10:48;18.65;84.03
79489;SHT31;68949;53.176;18.088;2023-09-19T07:13:15;18.65;84.14
79489;SHT31;68949;53.176;18.088;2023-09-19T07:15:45;18.66;84.02
79489;SHT31;68949;53.176;18.088;2023-09-19T07:18:16;18.70;83.99
79489;SHT31;68949;53.176;18.088;2023-09-19T07:20:44;18.72;83.87
79489;SHT31;68949;53.176;18.088;2023-09-19T07:23:18;18.76;83.81
79489;SHT31;68949;53.176;18.088;2023-09-19T07:25:48;18.81;83.70
79489;SHT31;68949;53.176;18.088;2023-09-19T07:28:16;18.90;83.60
79489;SHT31;68949;53.176;18.088;2023-09-19T07:30:43;18.95;83.54
79489;SHT31;68949;53.176;18.088;2023-09-19T07:33:10;18.96;83.65
79489;SHT31;68949;53.176;18.088;2023-09-19T07:35:37;18.96;83.60
79489;SHT31;68949;53.176;18.088;2023-09-19T07:38:08;18.97;83.68
79489;SHT31;68949;53.176;18.088;2023-09-19T07:40:36;18.97;83.65
79489;SHT31;68949;53.176;18.088;2023-09-19T07:43:03;19.01;83.67
79489;SHT31;68949;53.176;18.088;2023-09-19T07:45:31;19.06;83.52
79489;SHT31;68949;53.176;18.088;2023-09-19T07:47:58;19.08;83.41
79489;SHT31;68949;53.176;18.088;2023-09-19T07:50:28;19.13;83.24
79489;SHT31;68949;53.176;18.088;2023-09-19T07:52:55;19.14;83.08
79489;SHT31;68949;53.176;18.088;2023-09-19T07:55:22;19.14;82.98
79489;SHT31;68949;53.176;18.088;2023-09-19T07:57:54;19.18;82.86
79489;SHT31;68949;53.176;18.088;2023-09-19T08:00:21;19.18;82.71
79489;SHT31;68949;53.176;18.088;2023-09-19T08:02:48;19.16;82.60
79489;SHT31;68949;53.176;18.088;2023-09-19T08:05:15;19.12;82.37
79489;SHT31;68949;53.176;18.088;2023-09-19T08:07:46;19.06;82.39
79489;SHT31;68949;53.176;18.088;2023-09-19T08:10:16;19.04;82.56
79489;SHT31;68949;53.176;18.088;2023-09-19T08:12:46;19.12;82.56
79489;SHT31;68949;53.176;18.088;2023-09-19T08:15:18;19.19;82.47
79489;SHT31;68949;53.176;18.088;2023-09-19T08:17:48;19.24;82.31
79489;SHT31;68949;53.176;18.088;2023-09-19T08:20:15;19.30;82.34
79489;SHT31;68949;53.176;18.088;2023-09-19T08:25:26;19.53;82.15
79489;SHT31;68949;53.176;18.088;2023-09-19T08:27:52;19.58;81.92
79489;SHT31;68949;53.176;18.088;2023-09-19T08:30:27;19.63;81.70
79489;SHT31;68949;53.176;18.088;2023-09-19T08:32:57;19.69;81.74
79489;SHT31;68949;53.176;18.088;2023-09-19T08:35:25;19.68;81.71
79489;SHT31;68949;53.176;18.088;2023-09-19T08:37:52;19.67;81.69
79489;SHT31;68949;53.176;18.088;2023-09-19T08:40:19;19.67;81.55
79489;SHT31;68949;53.176;18.088;2023-09-19T08:42:49;19.65;81.52
79489;SHT31;68949;53.176;18.088;2023-09-19T08:45:21;19.69;81.51
79489;SHT31;68949;53.176;18.088;2023-09-19T08:48:37;19.76;81.55
79489;SHT31;68949;53.176;18.088;2023-09-19T08:51:07;19.87;81.42
79489;SHT31;68949;53.176;18.088;2023-09-19T08:53:51;19.96;81.21
79489;SHT31;68949;53.176;18.088;2023-09-19T08:56:30;20.09;80.91
79489;SHT31;68949;53.176;18.088;2023-09-19T08:59:00;20.10;80.53
79489;SHT31;68949;53.176;18.088;2023-09-19T09:01:31;20.14;80.57
79489;SHT31;68949;53.176;18.088;2023-09-19T09:03:58;20.23;80.31
79489;SHT31;68949;53.176;18.088;2023-09-19T09:06:27;20.31;80.08
79489;SHT31;68949;53.176;18.088;2023-09-19T09:08:55;20.37;80.06
79489;SHT31;68949;53.176;18.088;2023-09-19T09:11:23;20.36;79.84
79489;SHT31;68949;53.176;18.088;2023-09-19T09:13:51;20.36;79.69
79489;SHT31;68949;53.176;18.088;2023-09-19T09:16:17;20.44;79.54
79489;SHT31;68949;53.176;18.088;2023-09-19T09:18:47;20.49;79.14
79489;SHT31;68949;53.176;18.088;2023-09-19T09:21:21;20.55;78.71
79489;SHT31;68949;53.176;18.088;2023-09-19T09:23:51;20.53;78.44
79489;SHT31;68949;53.176;18.088;2023-09-19T09:29:05;20.45;78.20
79489;SHT31;68949;53.176;18.088;2023-09-19T09:31:31;20.55;78.12
79489;SHT31;68949;53.176;18.088;2023-09-19T09:33:58;20.74;77.66
79489;SHT31;68949;53.176;18.088;2023-09-19T09:36:34;20.89;77.37
79489;SHT31;68949;53.176;18.088;2023-09-19T09:39:07;21.00;76.28
79489;SHT31;68949;53.176;18.088;2023-09-19T09:41:51;21.11;76.28
79489;SHT31;68949;53.176;18.088;2023-09-19T09:44:18;21.18;75.92
79489;SHT31;68949;53.176;18.088;2023-09-19T09:46:45;21.19;75.78
79489;SHT31;68949;53.176;18.088;2023-09-19T09:49:23;21.22;75.66
79489;SHT31;68949;53.176;18.088;2023-09-19T09:52:04;21.23;75.51
79489;SHT31;68949;53.176;18.088;2023-09-19T09:54:35;21.19;75.53
79489;SHT31;68949;53.176;18.088;2023-09-19T09:57:06;21.16;75.42
79489;SHT31;68949;53.176;18.088;2023-09-19T09:59:47;21.15;74.95
79489;SHT31;68949;53.176;18.088;2023-09-19T10:02:39;21.15;74.72
79489;SHT31;68949;53.176;18.088;2023-09-19T10:07:47;21.30;74.58
79489;SHT31;68949;53.176;18.088;2023-09-19T10:10:33;21.39;74.70
79489;SHT31;68949;53.176;18.088;2023-09-19T10:13:14;21.39;73.95
79489;SHT31;68949;53.176;18.088;2023-09-19T10:15:46;21.34;73.79
79489;SHT31;68949;53.176;18.088;2023-09-19T10:18:22;21.19;73.35
79489;SHT31;68949;53.176;18.088;2023-09-19T10:20:51;21.07;73.30
79489;SHT31;68949;53.176;18.088;2023-09-19T10:23:20;21.06;73.40
79489;SHT31;68949;53.176;18.088;2023-09-19T10:25:52;21.11;73.23
79489;SHT31;68949;53.176;18.088;2023-09-19T10:28:20;21.14;72.57
79489;SHT31;68949;53.176;18.088;2023-09-19T10:30:51;21.12;72.87
79489;SHT31;68949;53.176;18.088;2023-09-19T10:33:19;21.05;72.91
79489;SHT31;68949;53.176;18.088;2023-09-19T10:35:56;21.00;73.19
79489;SHT31;68949;53.176;18.088;2023-09-19T10:38:26;20.99;72.44
79489;SHT31;68949;53.176;18.088;2023-09-19T10:40:56;21.02;71.48
79489;SHT31;68949;53.176;18.088;2023-09-19T10:43:29;21.03;71.09
79489;SHT31;68949;53.176;18.088;2023-09-19T10:46:02;21.13;71.49
79489;SHT31;68949;53.176;18.088;2023-09-19T10:48:33;21.34;70.82
79489;SHT31;68949;53.176;18.088;2023-09-19T10:51:05;21.50;69.91
79489;SHT31;68949;53.176;18.088;2023-09-19T10:53:41;21.55;69.30
79489;SHT31;68949;53.176;18.088;2023-09-19T10:59:10;21.64;69.70
79489;SHT31;68949;53.176;18.088;2023-09-19T11:04:27;21.95;66.88
79489;SHT31;68949;53.176;18.088;2023-09-19T11:07:03;21.98;66.98
79489;SHT31;68949;53.176;18.088;2023-09-19T11:09:51;21.99;66.38
79489;SHT31;68949;53.176;18.088;2023-09-19T11:14:59;21.99;66.79
79489;SHT31;68949;53.176;18.088;2023-09-19T11:17:32;22.03;66.08
79489;SHT31;68949;53.176;18.088;2023-09-19T11:33:15;22.30;63.73
79489;SHT31;68949;53.176;18.088;2023-09-19T11:46:14;22.60;61.51
79489;SHT31;68949;53.176;18.088;2023-09-19T11:48:48;22.55;60.96
79489;SHT31;68949;53.176;18.088;2023-09-19T11:51:19;22.48;60.46
79489;SHT31;68949;53.176;18.088;2023-09-19T11:53:54;22.39;60.55
79489;SHT31;68949;53.176;18.088;2023-09-19T11:56:27;22.37;60.54
79489;SHT31;68949;53.176;18.088;2023-09-19T11:58:55;22.36;60.42
79489;SHT31;68949;53.176;18.088;2023-09-19T12:01:29;22.33;60.11
79489;SHT31;68949;53.176;18.088;2023-09-19T12:04:00;22.37;59.87
79489;SHT31;68949;53.176;18.088;2023-09-19T12:06:33;22.40;59.24
79489;SHT31;68949;53.176;18.088;2023-09-19T12:09:02;22.47;56.76
79489;SHT31;68949;53.176;18.088;2023-09-19T12:11:33;22.45;56.33
79489;SHT31;68949;53.176;18.088;2023-09-19T12:14:22;22.43;56.86
79489;SHT31;68949;53.176;18.088;2023-09-19T12:16:55;22.46;56.45
79489;SHT31;68949;53.176;18.088;2023-09-19T12:19:25;22.35;55.51
79489;SHT31;68949;53.176;18.088;2023-09-19T12:21:58;22.31;56.23
79489;SHT31;68949;53.176;18.088;2023-09-19T12:24:32;22.46;56.63
79489;SHT31;68949;53.176;18.088;2023-09-19T12:27:05;22.63;56.04
79489;SHT31;68949;53.176;18.088;2023-09-19T12:29:43;22.75;55.60
79489;SHT31;68949;53.176;18.088;2023-09-19T12:32:13;22.84;55.78
79489;SHT31;68949;53.176;18.088;2023-09-19T12:34:49;22.89;56.12
79489;SHT31;68949;53.176;18.088;2023-09-19T12:37:18;22.89;56.25
79489;SHT31;68949;53.176;18.088;2023-09-19T12:39:49;22.75;56.00
79489;SHT31;68949;53.176;18.088;2023-09-19T12:42:20;22.58;55.65
79489;SHT31;68949;53.176;18.088;2023-09-19T12:44:50;22.19;55.31
79489;SHT31;68949;53.176;18.088;2023-09-19T12:47:27;21.91;55.87
79489;SHT31;68949;53.176;18.088;2023-09-19T12:52:40;21.43;56.78
79489;SHT31;68949;53.176;18.088;2023-09-19T12:55:24;21.30;57.28
79489;SHT31;68949;53.176;18.088;2023-09-19T13:00:36;21.56;56.22
79489;SHT31;68949;53.176;18.088;2023-09-19T13:03:18;21.72;55.90
79489;SHT31;68949;53.176;18.088;2023-09-19T13:05:56;21.88;54.77
79489;SHT31;68949;53.176;18.088;2023-09-19T13:08:31;21.99;54.14
79489;SHT31;68949;53.176;18.088;2023-09-19T13:11:11;22.02;53.55
79489;SHT31;68949;53.176;18.088;2023-09-19T13:13:49;22.09;54.43
79489;SHT31;68949;53.176;18.088;2023-09-19T13:19:39;22.01;53.79
79489;SHT31;68949;53.176;18.088;2023-09-19T13:22:36;21.97;53.86
79489;SHT31;68949;53.176;18.088;2023-09-19T13:25:13;22.00;52.50
79489;SHT31;68949;53.176;18.088;2023-09-19T13:27:46;22.04;52.89
79489;SHT31;68949;53.176;18.088;2023-09-19T13:30:18;22.18;53.87
79489;SHT31;68949;53.176;18.088;2023-09-19T13:32:45;22.35;53.69
79489;SHT31;68949;53.176;18.088;2023-09-19T13:35:13;22.39;53.22
79489;SHT31;68949;53.176;18.088;2023-09-19T13:37:41;22.40;53.39
79489;SHT31;68949;53.176;18.088;2023-09-19T13:40:13;22.43;53.24
79489;SHT31;68949;53.176;18.088;2023-09-19T13:42:42;22.34;52.60
79489;SHT31;68949;53.176;18.088;2023-09-19T13:45:09;22.14;52.58
79489;SHT31;68949;53.176;18.088;2023-09-19T13:47:38;22.03;53.02
79489;SHT31;68949;53.176;18.088;2023-09-19T13:50:06;22.08;53.74
79489;SHT31;68949;53.176;18.088;2023-09-19T13:52:34;22.18;53.52
79489;SHT31;68949;53.176;18.088;2023-09-19T13:55:01;22.25;52.92
79489;SHT31;68949;53.176;18.088;2023-09-19T13:57:27;22.31;52.94
79489;SHT31;68949;53.176;18.088;2023-09-19T13:59:55;22.25;52.05
79489;SHT31;68949;53.176;18.088;2023-09-19T14:02:23;22.18;51.97
79489;SHT31;68949;53.176;18.088;2023-09-19T14:04:50;22.06;51.83
79489;SHT31;68949;53.176;18.088;2023-09-19T14:07:18;22.04;52.00
79489;SHT31;68949;53.176;18.088;2023-09-19T14:09:46;22.03;51.87
79489;SHT31;68949;53.176;18.088;2023-09-19T14:12:13;21.97;51.39
79489;SHT31;68949;53.176;18.088;2023-09-19T14:14:41;21.80;51.68
79489;SHT31;68949;53.176;18.088;2023-09-19T14:17:08;21.71;51.03
79489;SHT31;68949;53.176;18.088;2023-09-19T14:19:35;21.71;50.51
79489;SHT31;68949;53.176;18.088;2023-09-19T14:22:03;21.71;50.77
79489;SHT31;68949;53.176;18.088;2023-09-19T14:24:34;21.72;51.13
79489;SHT31;68949;53.176;18.088;2023-09-19T14:27:01;21.75;51.06
79489;SHT31;68949;53.176;18.088;2023-09-19T14:29:30;21.80;50.41
79489;SHT31;68949;53.176;18.088;2023-09-19T14:31:57;21.89;50.10
79489;SHT31;68949;53.176;18.088;2023-09-19T14:34:24;21.89;50.00
79489;SHT31;68949;53.176;18.088;2023-09-19T14:36:50;21.91;50.10
79489;SHT31;68949;53.176;18.088;2023-09-19T14:39:17;21.94;50.06
79489;SHT31;68949;53.176;18.088;2023-09-19T14:41:46;22.01;50.01
79489;SHT31;68949;53.176;18.088;2023-09-19T14:44:12;21.99;49.36
79489;SHT31;68949;53.176;18.088;2023-09-19T14:46:39;21.93;49.61
79489;SHT31;68949;53.176;18.088;2023-09-19T14:49:06;21.87;49.98
79489;SHT31;68949;53.176;18.088;2023-09-19T14:51:33;21.80;49.80
79489;SHT31;68949;53.176;18.088;2023-09-19T14:54:02;21.75;49.62
79489;SHT31;68949;53.176;18.088;2023-09-19T14:56:29;21.72;49.56
79489;SHT31;68949;53.176;18.088;2023-09-19T14:58:57;21.64;49.51
79489;SHT31;68949;53.176;18.088;2023-09-19T15:01:24;21.55;49.84
79489;SHT31;68949;53.176;18.088;2023-09-19T15:03:50;21.44;50.14
79489;SHT31;68949;53.176;18.088;2023-09-19T15:06:17;21.33;50.61
79489;SHT31;68949;53.176;18.088;2023-09-19T15:08:46;21.21;51.06
79489;SHT31;68949;53.176;18.088;2023-09-19T15:11:14;21.09;51.26
79489;SHT31;68949;53.176;18.088;2023-09-19T15:13:45;20.99;51.53
79489;SHT31;68949;53.176;18.088;2023-09-19T15:16:14;20.92;51.92
79489;SHT31;68949;53.176;18.088;2023-09-19T15:18:41;20.86;52.20
79489;SHT31;68949;53.176;18.088;2023-09-19T15:21:11;20.80;52.31
79489;SHT31;68949;53.176;18.088;2023-09-19T15:23:40;20.73;52.40
79489;SHT31;68949;53.176;18.088;2023-09-19T15:26:12;20.62;52.61
79489;SHT31;68949;53.176;18.088;2023-09-19T15:28:46;20.53;52.90
79489;SHT31;68949;53.176;18.088;2023-09-19T15:31:14;20.46;53.20
79489;SHT31;68949;53.176;18.088;2023-09-19T15:33:40;20.41;53.36
79489;SHT31;68949;53.176;18.088;2023-09-19T15:36:08;20.37;53.16
79489;SHT31;68949;53.176;18.088;2023-09-19T15:41:36;20.28;53.80
79489;SHT31;68949;53.176;18.088;2023-09-19T15:44:11;20.24;53.91
79489;SHT31;68949;53.176;18.088;2023-09-19T15:46:43;20.19;54.28
79489;SHT31;68949;53.176;18.088;2023-09-19T15:49:11;20.15;54.64
79489;SHT31;68949;53.176;18.088;2023-09-19T15:51:39;20.11;54.52
79489;SHT31;68949;53.176;18.088;2023-09-19T15:54:13;20.07;54.55
79489;SHT31;68949;53.176;18.088;2023-09-19T15:56:45;20.00;54.61
79489;SHT31;68949;53.176;18.088;2023-09-19T15:59:13;19.94;54.76
79489;SHT31;68949;53.176;18.088;2023-09-19T16:01:40;19.90;54.93
79489;SHT31;68949;53.176;18.088;2023-09-19T16:04:09;19.86;55.04
79489;SHT31;68949;53.176;18.088;2023-09-19T16:06:36;19.81;55.11
79489;SHT31;68949;53.176;18.088;2023-09-19T16:09:04;19.75;55.29
79489;SHT31;68949;53.176;18.088;2023-09-19T16:11:32;19.68;55.50
79489;SHT31;68949;53.176;18.088;2023-09-19T16:14:01;19.62;55.60
79489;SHT31;68949;53.176;18.088;2023-09-19T16:16:29;19.57;55.84
79489;SHT31;68949;53.176;18.088;2023-09-19T16:18:58;19.51;55.86
79489;SHT31;68949;53.176;18.088;2023-09-19T16:21:30;19.47;56.03
79489;SHT31;68949;53.176;18.088;2023-09-19T16:23:58;19.43;56.27
79489;SHT31;68949;53.176;18.088;2023-09-19T16:26:26;19.39;56.43
79489;SHT31;68949;53.176;18.088;2023-09-19T16:28:56;19.34;56.77
79489;SHT31;68949;53.176;18.088;2023-09-19T16:31:28;19.29;56.84
79489;SHT31;68949;53.176;18.088;2023-09-19T16:33:57;19.22;56.95
79489;SHT31;68949;53.176;18.088;2023-09-19T16:36:25;19.12;57.39
79489;SHT31;68949;53.176;18.088;2023-09-19T16:38:52;19.05;57.38
79489;SHT31;68949;53.176;18.088;2023-09-19T16:41:19;19.01;57.48